sensor_id;sensor_type;location;lat;lon;timestamp;temperature;humidity
15133;DHT22;7667;51.232;17.110;2023-07-09T00:02:08;15.30;99.90
15133;DHT22;7667;51.232;17.110;2023-07-09T00:04:38;15.30;99.90
15133;DHT22;7667;51.232;17.110;2023-07-09T00:07:08;15.30;99.90
15133;DHT22;7667;51.232;17.110;2023-07-09T00:09:59;15.20;99.90
15133;DHT22;7667;51.232;17.110;2023-07-09T00:12:28;15.60;99.90
15133;DHT22;7667;51.232;17.110;2023-07-09T00:14:55;16.10;99.90
15133;DHT22;7667;51.232;17.110;2023-07-09T00:17:29;16.40;99.90
15133;DHT22;7667;51.232;17.110;2023-07-09T00:20:02;16.40;99.90
15133;DHT22;7667;51.232;17.110;2023-07-09T00:22:32;16.40;99.90
15133;DHT22;7667;51.232;17.110;2023-07-09T00:25:01;16.90;99.90
15133;DHT22;7667;51.232;17.110;2023-07-09T00:27:29;17.40;99.90
15133;DHT22;7667;51.232;17.110;2023-07-09T00:30:00;17.70;99.90
15133;DHT22;7667;51.232;17.110;2023-07-09T00:32:29;17.80;99.90
15133;DHT22;7667;51.232;17.110;2023-07-09T00:34:57;17.90;99.90
15133;DHT22;7667;51.232;17.110;2023-07-09T00:37:25;18.00;99.90
15133;DHT22;7667;51.232;17.110;2023-07-09T00:39:53;17.90;99.90
15133;DHT22;7667;51.232;17.110;2023-07-09T00:42:22;17.80;99.90
15133;DHT22;7667;51.232;17.110;2023-07-09T00:44:52;17.40;99.90
15133;DHT22;7667;51.232;17.110;2023-07-09T00:53:08;16.40;99.90
15133;DHT22;7667;51.232;17.110;2023-07-09T00:55:41;16.10;99.90
15133;DHT22;7667;51.232;17.110;2023-07-09T00:58:13;16.00;99.90
15133;DHT22;7667;51.232;17.110;2023-07-09T01:00:50;15.80;99.90
15133;DHT22;7667;51.232;17.110;2023-07-09T01:03:39;15.80;99.90
15133;DHT22;7667;51.232;17.110;2023-07-09T01:06:10;15.80;99.90
15133;DHT22;7667;51.232;17.110;2023-07-09T01:08:40;15.80;99.90
15133;DHT22;7667;51.232;17.110;2023-07-09T01:11:21;15.70;99.90
15133;DHT22;7667;51.232;17.110;2023-07-09T01:13:55;15.70;99.90
15133;DHT22;7667;51.232;17.110;2023-07-09T01:16:28;15.60;99.90
15133;DHT22;7667;51.232;17.110;2023-07-09T01:18:58;15.60;99.90
15133;DHT22;7667;51.232;17.110;2023-07-09T01:21:28;15.50;99.90
15133;DHT22;7667;51.232;17.110;2023-07-09T01:23:55;15.50;99.90
15133;DHT22;7667;51.232;17.110;2023-07-09T01:26:27;15.40;99.90
15133;DHT22;7667;51.232;17.110;2023-07-09T01:28:56;15.30;99.90
15133;DHT22;7667;51.232;17.110;2023-07-09T01:31:24;15.30;99.90
15133;DHT22;7667;51.232;17.110;2023-07-09T01:33:52;15.00;99.90
15133;DHT22;7667;51.232;17.110;2023-07-09T01:36:21;14.70;99.90
15133;DHT22;7667;51.232;17.110;2023-07-09T01:38:50;14.60;99.90
15133;DHT22;7667;51.232;17.110;2023-07-09T01:41:20;14.70;99.90
15133;DHT22;7667;51.232;17.110;2023-07-09T01:43:49;14.70;99.90
15133;DHT22;7667;51.232;17.110;2023-07-09T01:46:17;14.50;99.90
15133;DHT22;7667;51.232;17.110;2023-07-09T01:48:44;14.40;99.90
15133;DHT22;7667;51.232;17.110;2023-07-09T01:51:15;14.40;99.90
15133;DHT22;7667;51.232;17.110;2023-07-09T01:53:46;14.20;99.90
15133;DHT22;7667;51.232;17.110;2023-07-09T01:56:14;14.00;99.90
15133;DHT22;7667;51.232;17.110;2023-07-09T01:58:42;13.70;99.90
15133;DHT22;7667;51.232;17.110;2023-07-09T02:01:10;13.50;99.90
15133;DHT22;7667;51.232;17.110;2023-07-09T02:03:38;13.50;99.90
15133;DHT22;7667;51.232;17.110;2023-07-09T02:06:05;13.80;99.90
15133;DHT22;7667;51.232;17.110;2023-07-09T02:08:37;14.00;99.90
15133;DHT22;7667;51.232;17.110;2023-07-09T02:11:05;14.00;99.90
15133;DHT22;7667;51.232;17.110;2023-07-09T02:13:33;14.00;99.90
15133;DHT22;7667;51.232;17.110;2023-07-09T02:16:00;13.90;99.90
15133;DHT22;7667;51.232;17.110;2023-07-09T02:18:29;14.10;99.90
15133;DHT22;7667;51.232;17.110;2023-07-09T02:20:57;13.90;99.90
15133;DHT22;7667;51.232;17.110;2023-07-09T02:23:28;13.70;99.90
15133;DHT22;7667;51.232;17.110;2023-07-09T02:25:56;13.60;99.90
15133;DHT22;7667;51.232;17.110;2023-07-09T02:28:24;13.40;99.90
15133;DHT22;7667;51.232;17.110;2023-07-09T02:30:52;13.60;99.90
15133;DHT22;7667;51.232;17.110;2023-07-09T02:33:20;13.80;99.90
15133;DHT22;7667;51.232;17.110;2023-07-09T02:35:48;13.80;99.90
15133;DHT22;7667;51.232;17.110;2023-07-09T02:38:15;13.80;99.90
15133;DHT22;7667;51.232;17.110;2023-07-09T02:40:43;13.60;99.90
15133;DHT22;7667;51.232;17.110;2023-07-09T02:43:11;13.50;99.90
15133;DHT22;7667;51.232;17.110;2023-07-09T02:45:38;13.60;99.90
15133;DHT22;7667;51.232;17.110;2023-07-09T02:48:06;13.80;99.90
15133;DHT22;7667;51.232;17.110;2023-07-09T02:50:34;14.00;99.90
15133;DHT22;7667;51.232;17.110;2023-07-09T02:53:01;14.00;99.90
15133;DHT22;7667;51.232;17.110;2023-07-09T02:55:29;14.10;99.90
15133;DHT22;7667;51.232;17.110;2023-07-09T02:57:57;14.10;99.90
15133;DHT22;7667;51.232;17.110;2023-07-09T03:00:25;14.10;99.90
15133;DHT22;7667;51.232;17.110;2023-07-09T03:02:52;14.00;99.90
15133;DHT22;7667;51.232;17.110;2023-07-09T03:05:20;13.60;99.90
15133;DHT22;7667;51.232;17.110;2023-07-09T03:07:48;13.40;99.90
15133;DHT22;7667;51.232;17.110;2023-07-09T03:10:16;13.40;99.90
15133;DHT22;7667;51.232;17.110;2023-07-09T03:12:44;13.50;99.90
15133;DHT22;7667;51.232;17.110;2023-07-09T03:15:12;13.70;99.90
15133;DHT22;7667;51.232;17.110;2023-07-09T03:17:40;14.00;99.90
15133;DHT22;7667;51.232;17.110;2023-07-09T03:20:08;14.20;99.90
15133;DHT22;7667;51.232;17.110;2023-07-09T03:22:36;14.30;99.90
15133;DHT22;7667;51.232;17.110;2023-07-09T03:25:04;14.20;99.90
15133;DHT22;7667;51.232;17.110;2023-07-09T03:27:32;14.20;99.90
15133;DHT22;7667;51.232;17.110;2023-07-09T03:30:00;14.10;99.90
15133;DHT22;7667;51.232;17.110;2023-07-09T03:32:27;14.10;99.90
15133;DHT22;7667;51.232;17.110;2023-07-09T03:34:55;14.30;99.90
15133;DHT22;7667;51.232;17.110;2023-07-09T03:37:23;14.50;99.90
15133;DHT22;7667;51.232;17.110;2023-07-09T03:39:51;14.70;99.90
15133;DHT22;7667;51.232;17.110;2023-07-09T03:42:18;14.70;99.90
15133;DHT22;7667;51.232;17.110;2023-07-09T03:44:46;14.60;99.90
15133;DHT22;7667;51.232;17.110;2023-07-09T03:47:14;14.70;99.90
15133;DHT22;7667;51.232;17.110;2023-07-09T03:49:42;14.90;99.90
15133;DHT22;7667;51.232;17.110;2023-07-09T03:52:09;14.90;99.90
15133;DHT22;7667;51.232;17.110;2023-07-09T03:54:37;14.80;99.90
15133;DHT22;7667;51.232;17.110;2023-07-09T03:57:05;15.10;99.90
15133;DHT22;7667;51.232;17.110;2023-07-09T03:59:33;15.30;99.90
15133;DHT22;7667;51.232;17.110;2023-07-09T04:02:01;15.20;99.90
15133;DHT22;7667;51.232;17.110;2023-07-09T04:04:30;15.20;99.90
15133;DHT22;7667;51.232;17.110;2023-07-09T04:06:58;15.20;99.90
15133;DHT22;7667;51.232;17.110;2023-07-09T04:09:25;15.50;99.90
15133;DHT22;7667;51.232;17.110;2023-07-09T04:11:53;15.70;99.90
15133;DHT22;7667;51.232;17.110;2023-07-09T04:14:21;15.70;99.90
15133;DHT22;7667;51.232;17.110;2023-07-09T04:16:48;15.80;99.90
15133;DHT22;7667;51.232;17.110;2023-07-09T04:19:16;15.70;99.90
15133;DHT22;7667;51.232;17.110;2023-07-09T04:21:44;15.70;99.90
15133;DHT22;7667;51.232;17.110;2023-07-09T04:24:13;15.90;99.90
15133;DHT22;7667;51.232;17.110;2023-07-09T04:26:41;16.10;99.90
15133;DHT22;7667;51.232;17.110;2023-07-09T04:29:10;16.30;99.90
15133;DHT22;7667;51.232;17.110;2023-07-09T04:31:39;16.30;99.90
15133;DHT22;7667;51.232;17.110;2023-07-09T04:34:08;16.30;99.90
15133;DHT22;7667;51.232;17.110;2023-07-09T04:36:35;16.30;99.90
15133;DHT22;7667;51.232;17.110;2023-07-09T04:39:03;16.50;99.90
15133;DHT22;7667;51.232;17.110;2023-07-09T04:41:32;16.90;99.90
15133;DHT22;7667;51.232;17.110;2023-07-09T04:44:00;17.10;99.90
15133;DHT22;7667;51.232;17.110;2023-07-09T04:46:28;17.30;99.90
15133;DHT22;7667;51.232;17.110;2023-07-09T04:48:55;17.30;99.90
15133;DHT22;7667;51.232;17.110;2023-07-09T04:51:23;17.20;99.90
15133;DHT22;7667;51.232;17.110;2023-07-09T04:53:51;17.30;99.90
15133;DHT22;7667;51.232;17.110;2023-07-09T04:56:19;17.40;99.90
15133;DHT22;7667;51.232;17.110;2023-07-09T04:58:46;17.60;99.90
15133;DHT22;7667;51.232;17.110;2023-07-09T05:01:16;17.60;99.90
15133;DHT22;7667;51.232;17.110;2023-07-09T05:03:44;17.70;99.90
15133;DHT22;7667;51.232;17.110;2023-07-09T05:06:11;17.80;99.90
15133;DHT22;7667;51.232;17.110;2023-07-09T05:08:39;17.90;99.90
15133;DHT22;7667;51.232;17.110;2023-07-09T05:11:07;17.90;99.90
15133;DHT22;7667;51.232;17.110;2023-07-09T05:13:35;18.00;99.90
15133;DHT22;7667;51.232;17.110;2023-07-09T05:16:03;18.10;99.90
15133;DHT22;7667;51.232;17.110;2023-07-09T05:18:32;18.30;99.90
15133;DHT22;7667;51.232;17.110;2023-07-09T05:20:59;18.30;99.90
15133;DHT22;7667;51.232;17.110;2023-07-09T05:23:27;18.30;99.90
15133;DHT22;7667;51.232;17.110;2023-07-09T05:26:02;18.40;99.90
15133;DHT22;7667;51.232;17.110;2023-07-09T05:28:31;18.40;99.90
15133;DHT22;7667;51.232;17.110;2023-07-09T05:31:00;18.40;99.90
15133;DHT22;7667;51.232;17.110;2023-07-09T05:33:28;18.50;99.90
15133;DHT22;7667;51.232;17.110;2023-07-09T05:35:56;18.70;99.90
15133;DHT22;7667;51.232;17.110;2023-07-09T05:38:23;18.80;99.90
15133;DHT22;7667;51.232;17.110;2023-07-09T05:41:04;18.80;99.90
15133;DHT22;7667;51.232;17.110;2023-07-09T05:43:32;18.90;99.90
15133;DHT22;7667;51.232;17.110;2023-07-09T05:46:02;19.00;99.90
15133;DHT22;7667;51.232;17.110;2023-07-09T05:48:32;19.20;99.90
15133;DHT22;7667;51.232;17.110;2023-07-09T05:51:00;19.30;99.90
15133;DHT22;7667;51.232;17.110;2023-07-09T05:53:28;19.40;99.90
15133;DHT22;7667;51.232;17.110;2023-07-09T05:55:56;19.50;99.90
15133;DHT22;7667;51.232;17.110;2023-07-09T05:58:24;19.60;99.90
15133;DHT22;7667;51.232;17.110;2023-07-09T06:00:55;19.80;99.90
15133;DHT22;7667;51.232;17.110;2023-07-09T06:03:26;19.90;99.90
15133;DHT22;7667;51.232;17.110;2023-07-09T06:05:55;20.00;99.90
15133;DHT22;7667;51.232;17.110;2023-07-09T06:08:24;20.10;99.90
15133;DHT22;7667;51.232;17.110;2023-07-09T06:10:56;20.30;99.90
15133;DHT22;7667;51.232;17.110;2023-07-09T06:13:30;20.50;99.90
15133;DHT22;7667;51.232;17.110;2023-07-09T06:15:59;20.70;99.90
15133;DHT22;7667;51.232;17.110;2023-07-09T06:18:29;20.70;99.90
15133;DHT22;7667;51.232;17.110;2023-07-09T06:20:59;20.90;99.90
15133;DHT22;7667;51.232;17.110;2023-07-09T06:23:28;21.00;99.90
15133;DHT22;7667;51.232;17.110;2023-07-09T06:25:57;21.20;99.90
15133;DHT22;7667;51.232;17.110;2023-07-09T06:28:26;21.30;99.90
15133;DHT22;7667;51.232;17.110;2023-07-09T06:30:58;21.40;99.90
15133;DHT22;7667;51.232;17.110;2023-07-09T06:33:27;21.50;99.90
15133;DHT22;7667;51.232;17.110;2023-07-09T06:35:59;21.70;99.90
15133;DHT22;7667;51.232;17.110;2023-07-09T06:38:29;21.90;99.90
15133;DHT22;7667;51.232;17.110;2023-07-09T06:40:57;22.00;99.90
15133;DHT22;7667;51.232;17.110;2023-07-09T06:43:25;22.10;99.90
15133;DHT22;7667;51.232;17.110;2023-07-09T06:45:56;22.20;99.90
15133;DHT22;7667;51.232;17.110;2023-07-09T06:48:27;22.40;99.90
15133;DHT22;7667;51.232;17.110;2023-07-09T06:50:56;22.60;99.90
15133;DHT22;7667;51.232;17.110;2023-07-09T06:53:26;22.70;99.90
15133;DHT22;7667;51.232;17.110;2023-07-09T06:55:56;22.80;99.90
15133;DHT22;7667;51.232;17.110;2023-07-09T06:58:28;22.90;99.90
15133;DHT22;7667;51.232;17.110;2023-07-09T07:01:01;23.10;99.90
15133;DHT22;7667;51.232;17.110;2023-07-09T07:03:32;23.20;99.90
15133;DHT22;7667;51.232;17.110;2023-07-09T07:06:01;23.40;99.90
15133;DHT22;7667;51.232;17.110;2023-07-09T07:08:30;23.50;99.90
15133;DHT22;7667;51.232;17.110;2023-07-09T07:11:02;23.70;99.90
15133;DHT22;7667;51.232;17.110;2023-07-09T07:13:41;23.80;99.90
15133;DHT22;7667;51.232;17.110;2023-07-09T07:16:11;24.00;99.90
15133;DHT22;7667;51.232;17.110;2023-07-09T07:18:40;24.10;99.90
15133;DHT22;7667;51.232;17.110;2023-07-09T07:21:08;24.20;99.90
15133;DHT22;7667;51.232;17.110;2023-07-09T07:23:36;24.40;99.90
15133;DHT22;7667;51.232;17.110;2023-07-09T07:26:04;24.60;99.90
15133;DHT22;7667;51.232;17.110;2023-07-09T07:28:34;24.80;99.90
15133;DHT22;7667;51.232;17.110;2023-07-09T07:31:07;24.80;99.90
15133;DHT22;7667;51.232;17.110;2023-07-09T07:33:39;24.90;99.90
15133;DHT22;7667;51.232;17.110;2023-07-09T07:36:08;25.10;99.90
15133;DHT22;7667;51.232;17.110;2023-07-09T07:38:39;25.20;99.90
15133;DHT22;7667;51.232;17.110;2023-07-09T07:41:07;25.20;99.90
15133;DHT22;7667;51.232;17.110;2023-07-09T07:43:35;25.40;99.90
15133;DHT22;7667;51.232;17.110;2023-07-09T07:46:03;25.30;99.90
15133;DHT22;7667;51.232;17.110;2023-07-09T07:48:31;25.20;99.90
15133;DHT22;7667;51.232;17.110;2023-07-09T07:51:01;24.90;99.90
15133;DHT22;7667;51.232;17.110;2023-07-09T07:53:30;24.70;99.90
15133;DHT22;7667;51.232;17.110;2023-07-09T07:55:58;24.70;99.90
15133;DHT22;7667;51.232;17.110;2023-07-09T07:58:26;24.60;99.90
15133;DHT22;7667;51.232;17.110;2023-07-09T08:00:55;24.70;99.90
15133;DHT22;7667;51.232;17.110;2023-07-09T08:03:24;25.00;99.90
15133;DHT22;7667;51.232;17.110;2023-07-09T08:05:53;25.00;99.90
15133;DHT22;7667;51.232;17.110;2023-07-09T08:08:21;25.10;99.90
15133;DHT22;7667;51.232;17.110;2023-07-09T08:10:59;25.20;99.90
15133;DHT22;7667;51.232;17.110;2023-07-09T08:13:28;25.30;99.90
15133;DHT22;7667;51.232;17.110;2023-07-09T08:15:55;25.40;99.90
15133;DHT22;7667;51.232;17.110;2023-07-09T08:18:23;25.50;99.90
15133;DHT22;7667;51.232;17.110;2023-07-09T08:20:51;25.70;99.70
15133;DHT22;7667;51.232;17.110;2023-07-09T08:23:19;25.70;99.90
15133;DHT22;7667;51.232;17.110;2023-07-09T08:25:57;25.90;99.90
15133;DHT22;7667;51.232;17.110;2023-07-09T08:28:26;26.10;99.90
15133;DHT22;7667;51.232;17.110;2023-07-09T08:30:54;26.30;99.60
15133;DHT22;7667;51.232;17.110;2023-07-09T08:33:23;26.40;94.20
15133;DHT22;7667;51.232;17.110;2023-07-09T08:35:52;26.30;95.50
15133;DHT22;7667;51.232;17.110;2023-07-09T08:38:21;26.30;94.00
15133;DHT22;7667;51.232;17.110;2023-07-09T08:40:57;26.40;97.70
15133;DHT22;7667;51.232;17.110;2023-07-09T08:48:46;26.80;90.20
15133;DHT22;7667;51.232;17.110;2023-07-09T08:54:13;26.90;89.20
15133;DHT22;7667;51.232;17.110;2023-07-09T08:57:17;27.00;80.10
15133;DHT22;7667;51.232;17.110;2023-07-09T08:59:57;27.00;81.30
15133;DHT22;7667;51.232;17.110;2023-07-09T09:02:42;27.20;72.30
15133;DHT22;7667;51.232;17.110;2023-07-09T09:05:18;27.10;77.10
15133;DHT22;7667;51.232;17.110;2023-07-09T09:08:04;27.20;76.90
15133;DHT22;7667;51.232;17.110;2023-07-09T09:10:47;27.30;79.50
15133;DHT22;7667;51.232;17.110;2023-07-09T09:13:18;27.40;73.30
15133;DHT22;7667;51.232;17.110;2023-07-09T09:15:48;27.60;74.50
15133;DHT22;7667;51.232;17.110;2023-07-09T09:18:22;27.70;65.80
15133;DHT22;7667;51.232;17.110;2023-07-09T09:21:20;27.70;66.60
15133;DHT22;7667;51.232;17.110;2023-07-09T09:23:56;27.60;67.90
15133;DHT22;7667;51.232;17.110;2023-07-09T09:26:31;27.60;65.50
15133;DHT22;7667;51.232;17.110;2023-07-09T09:29:00;27.70;68.70
15133;DHT22;7667;51.232;17.110;2023-07-09T09:31:30;27.80;67.60
15133;DHT22;7667;51.232;17.110;2023-07-09T09:33:57;28.10;68.30
15133;DHT22;7667;51.232;17.110;2023-07-09T09:36:26;28.10;62.30
15133;DHT22;7667;51.232;17.110;2023-07-09T09:38:54;28.10;60.00
15133;DHT22;7667;51.232;17.110;2023-07-09T09:41:24;28.30;62.80
15133;DHT22;7667;51.232;17.110;2023-07-09T09:43:54;28.20;63.00
15133;DHT22;7667;51.232;17.110;2023-07-09T09:46:27;28.30;62.50
15133;DHT22;7667;51.232;17.110;2023-07-09T09:49:00;28.10;59.30
15133;DHT22;7667;51.232;17.110;2023-07-09T09:51:29;28.10;63.10
15133;DHT22;7667;51.232;17.110;2023-07-09T09:54:01;28.30;63.20
15133;DHT22;7667;51.232;17.110;2023-07-09T09:56:34;28.30;60.00
15133;DHT22;7667;51.232;17.110;2023-07-09T09:59:04;28.20;60.70
15133;DHT22;7667;51.232;17.110;2023-07-09T10:01:34;28.30;59.50
15133;DHT22;7667;51.232;17.110;2023-07-09T10:04:04;28.30;58.00
15133;DHT22;7667;51.232;17.110;2023-07-09T10:06:40;28.60;59.20
15133;DHT22;7667;51.232;17.110;2023-07-09T10:12:46;28.60;57.60
15133;DHT22;7667;51.232;17.110;2023-07-09T10:22:16;28.50;57.80
15133;DHT22;7667;51.232;17.110;2023-07-09T10:34:30;28.90;54.10
15133;DHT22;7667;51.232;17.110;2023-07-09T10:39:56;29.00;54.30
15133;DHT22;7667;51.232;17.110;2023-07-09T10:42:35;29.20;55.50
15133;DHT22;7667;51.232;17.110;2023-07-09T10:45:41;29.40;55.40
15133;DHT22;7667;51.232;17.110;2023-07-09T10:54:34;29.80;54.80
15133;DHT22;7667;51.232;17.110;2023-07-09T10:59:57;30.60;55.50
15133;DHT22;7667;51.232;17.110;2023-07-09T11:02:30;31.00;54.00
15133;DHT22;7667;51.232;17.110;2023-07-09T11:05:00;30.60;52.90
15133;DHT22;7667;51.232;17.110;2023-07-09T11:07:51;31.00;52.70
15133;DHT22;7667;51.232;17.110;2023-07-09T11:13:37;32.20;51.30
15133;DHT22;7667;51.232;17.110;2023-07-09T11:16:35;32.50;51.70
15133;DHT22;7667;51.232;17.110;2023-07-09T11:19:11;32.50;51.70
15133;DHT22;7667;51.232;17.110;2023-07-09T11:22:02;32.40;50.60
15133;DHT22;7667;51.232;17.110;2023-07-09T11:24:48;31.80;50.50
15133;DHT22;7667;51.232;17.110;2023-07-09T11:27:31;31.80;50.40
15133;DHT22;7667;51.232;17.110;2023-07-09T11:30:18;31.80;50.00
15133;DHT22;7667;51.232;17.110;2023-07-09T11:32:51;32.30;51.00
15133;DHT22;7667;51.232;17.110;2023-07-09T11:35:24;33.10;48.00
15133;DHT22;7667;51.232;17.110;2023-07-09T11:37:55;33.60;46.90
15133;DHT22;7667;51.232;17.110;2023-07-09T11:40:23;33.70;46.90
15133;DHT22;7667;51.232;17.110;2023-07-09T11:42:58;34.40;47.80
15133;DHT22;7667;51.232;17.110;2023-07-09T11:45:32;35.10;46.00
15133;DHT22;7667;51.232;17.110;2023-07-09T11:48:25;35.50;45.00
15133;DHT22;7667;51.232;17.110;2023-07-09T11:50:55;34.70;45.90
15133;DHT22;7667;51.232;17.110;2023-07-09T11:56:21;34.50;45.30
15133;DHT22;7667;51.232;17.110;2023-07-09T11:59:00;34.00;46.30
15133;DHT22;7667;51.232;17.110;2023-07-09T12:01:43;33.60;45.80
15133;DHT22;7667;51.232;17.110;2023-07-09T12:04:16;33.60;46.00
15133;DHT22;7667;51.232;17.110;2023-07-09T12:06:46;34.10;46.00
15133;DHT22;7667;51.232;17.110;2023-07-09T12:09:16;34.50;45.00
15133;DHT22;7667;51.232;17.110;2023-07-09T12:11:49;35.40;44.20
15133;DHT22;7667;51.232;17.110;2023-07-09T12:14:20;35.10;44.40
15133;DHT22;7667;51.232;17.110;2023-07-09T12:16:53;35.50;45.30
15133;DHT22;7667;51.232;17.110;2023-07-09T12:19:24;36.00;43.50
15133;DHT22;7667;51.232;17.110;2023-07-09T12:21:55;36.20;43.50
15133;DHT22;7667;51.232;17.110;2023-07-09T12:24:30;35.90;43.60
15133;DHT22;7667;51.232;17.110;2023-07-09T12:27:15;35.00;43.60
15133;DHT22;7667;51.232;17.110;2023-07-09T12:29:53;35.00;43.00
15133;DHT22;7667;51.232;17.110;2023-07-09T12:32:22;35.70;43.40
15133;DHT22;7667;51.232;17.110;2023-07-09T12:34:56;35.90;42.80
15133;DHT22;7667;51.232;17.110;2023-07-09T12:37:27;36.70;43.30
15133;DHT22;7667;51.232;17.110;2023-07-09T12:39:59;36.70;43.10
15133;DHT22;7667;51.232;17.110;2023-07-09T12:42:33;35.60;43.90
15133;DHT22;7667;51.232;17.110;2023-07-09T12:45:03;34.90;42.70
15133;DHT22;7667;51.232;17.110;2023-07-09T12:47:32;35.20;41.60
15133;DHT22;7667;51.232;17.110;2023-07-09T12:50:18;34.40;43.10
15133;DHT22;7667;51.232;17.110;2023-07-09T12:53:14;34.10;45.20
15133;DHT22;7667;51.232;17.110;2023-07-09T12:55:45;34.50;45.10
15133;DHT22;7667;51.232;17.110;2023-07-09T12:58:22;34.50;42.90
15133;DHT22;7667;51.232;17.110;2023-07-09T13:00:56;35.20;41.90
15133;DHT22;7667;51.232;17.110;2023-07-09T13:03:29;35.10;40.70
15133;DHT22;7667;51.232;17.110;2023-07-09T13:06:01;34.50;42.10
15133;DHT22;7667;51.232;17.110;2023-07-09T13:08:42;34.50;42.50
15133;DHT22;7667;51.232;17.110;2023-07-09T13:11:15;34.80;41.90
15133;DHT22;7667;51.232;17.110;2023-07-09T13:14:03;34.80;41.20
15133;DHT22;7667;51.232;17.110;2023-07-09T13:16:38;34.80;40.50
15133;DHT22;7667;51.232;17.110;2023-07-09T13:19:10;35.80;41.10
15133;DHT22;7667;51.232;17.110;2023-07-09T13:21:39;36.40;41.10
15133;DHT22;7667;51.232;17.110;2023-07-09T13:24:25;36.10;40.30
15133;DHT22;7667;51.232;17.110;2023-07-09T13:26:55;35.90;40.50
15133;DHT22;7667;51.232;17.110;2023-07-09T13:29:27;35.20;41.80
15133;DHT22;7667;51.232;17.110;2023-07-09T13:31:55;34.40;41.30
15133;DHT22;7667;51.232;17.110;2023-07-09T13:34:26;33.80;41.50
15133;DHT22;7667;51.232;17.110;2023-07-09T13:36:55;34.10;41.00
15133;DHT22;7667;51.232;17.110;2023-07-09T13:39:25;35.40;41.10
15133;DHT22;7667;51.232;17.110;2023-07-09T13:41:55;35.60;39.90
15133;DHT22;7667;51.232;17.110;2023-07-09T13:44:26;35.50;40.00
15133;DHT22;7667;51.232;17.110;2023-07-09T13:46:55;35.70;40.30
15133;DHT22;7667;51.232;17.110;2023-07-09T13:49:25;35.40;40.50
15133;DHT22;7667;51.232;17.110;2023-07-09T13:51:57;35.90;40.00
15133;DHT22;7667;51.232;17.110;2023-07-09T13:54:31;36.60;40.00
15133;DHT22;7667;51.232;17.110;2023-07-09T13:57:05;37.30;40.30
15133;DHT22;7667;51.232;17.110;2023-07-09T13:59:33;36.70;39.50
15133;DHT22;7667;51.232;17.110;2023-07-09T14:02:01;36.50;39.70
15133;DHT22;7667;51.232;17.110;2023-07-09T14:04:33;35.10;40.20
15133;DHT22;7667;51.232;17.110;2023-07-09T14:07:00;34.50;41.10
15133;DHT22;7667;51.232;17.110;2023-07-09T14:09:29;35.10;40.50
15133;DHT22;7667;51.232;17.110;2023-07-09T14:11:57;35.30;40.40
15133;DHT22;7667;51.232;17.110;2023-07-09T14:14:31;35.80;39.40
15133;DHT22;7667;51.232;17.110;2023-07-09T14:17:00;37.00;40.40
15133;DHT22;7667;51.232;17.110;2023-07-09T14:19:28;37.30;38.40
15133;DHT22;7667;51.232;17.110;2023-07-09T14:21:55;36.40;38.90
15133;DHT22;7667;51.232;17.110;2023-07-09T14:24:27;36.00;39.50
15133;DHT22;7667;51.232;17.110;2023-07-09T14:26:57;36.20;38.60
15133;DHT22;7667;51.232;17.110;2023-07-09T14:29:25;35.80;39.60
15133;DHT22;7667;51.232;17.110;2023-07-09T14:31:53;35.50;39.10
15133;DHT22;7667;51.232;17.110;2023-07-09T14:34:32;35.10;38.70
15133;DHT22;7667;51.232;17.110;2023-07-09T14:37:00;35.60;39.20
15133;DHT22;7667;51.232;17.110;2023-07-09T14:39:28;36.10;39.20
15133;DHT22;7667;51.232;17.110;2023-07-09T14:41:56;35.90;39.30
15133;DHT22;7667;51.232;17.110;2023-07-09T14:44:29;36.30;37.90
15133;DHT22;7667;51.232;17.110;2023-07-09T14:47:00;35.90;39.80
15133;DHT22;7667;51.232;17.110;2023-07-09T14:49:28;35.90;39.30
15133;DHT22;7667;51.232;17.110;2023-07-09T14:51:56;35.80;39.40
15133;DHT22;7667;51.232;17.110;2023-07-09T14:54:28;35.10;38.00
15133;DHT22;7667;51.232;17.110;2023-07-09T14:56:58;35.30;38.70
15133;DHT22;7667;51.232;17.110;2023-07-09T14:59:26;36.60;38.10
15133;DHT22;7667;51.232;17.110;2023-07-09T15:01:54;38.00;37.50
15133;DHT22;7667;51.232;17.110;2023-07-09T15:06:54;38.40;37.00
15133;DHT22;7667;51.232;17.110;2023-07-09T15:09:25;37.50;35.30
15133;DHT22;7667;51.232;17.110;2023-07-09T15:11:58;37.70;35.70
15133;DHT22;7667;51.232;17.110;2023-07-09T15:14:27;38.10;37.00
15133;DHT22;7667;51.232;17.110;2023-07-09T15:16:55;38.20;36.50
15133;DHT22;7667;51.232;17.110;2023-07-09T15:19:27;38.60;36.20
15133;DHT22;7667;51.232;17.110;2023-07-09T15:21:55;38.30;36.40
15133;DHT22;7667;51.232;17.110;2023-07-09T15:24:32;38.00;36.90
15133;DHT22;7667;51.232;17.110;2023-07-09T15:27:02;36.80;39.10
15133;DHT22;7667;51.232;17.110;2023-07-09T15:29:32;37.00;38.10
15133;DHT22;7667;51.232;17.110;2023-07-09T15:32:00;36.50;38.50
15133;DHT22;7667;51.232;17.110;2023-07-09T15:34:28;36.40;39.00
15133;DHT22;7667;51.232;17.110;2023-07-09T15:36:55;36.70;37.00
15133;DHT22;7667;51.232;17.110;2023-07-09T15:39:23;36.90;36.80
15133;DHT22;7667;51.232;17.110;2023-07-09T15:41:53;36.30;36.80
15133;DHT22;7667;51.232;17.110;2023-07-09T15:44:21;36.50;36.50
15133;DHT22;7667;51.232;17.110;2023-07-09T15:46:52;37.00;36.30
15133;DHT22;7667;51.232;17.110;2023-07-09T15:49:21;37.60;36.80
15133;DHT22;7667;51.232;17.110;2023-07-09T15:51:50;38.00;37.30
15133;DHT22;7667;51.232;17.110;2023-07-09T15:54:20;37.40;36.80
15133;DHT22;7667;51.232;17.110;2023-07-09T15:56:49;38.10;37.10
15133;DHT22;7667;51.232;17.110;2023-07-09T15:59:30;38.40;37.40
15133;DHT22;7667;51.232;17.110;2023-07-09T16:02:01;38.00;37.30
15133;DHT22;7667;51.232;17.110;2023-07-09T16:04:35;37.60;37.30
15133;DHT22;7667;51.232;17.110;2023-07-09T16:07:03;36.60;38.20
15133;DHT22;7667;51.232;17.110;2023-07-09T16:09:32;37.20;38.20
15133;DHT22;7667;51.232;17.110;2023-07-09T16:12:00;37.80;38.80
15133;DHT22;7667;51.232;17.110;2023-07-09T16:14:32;37.30;38.90
15133;DHT22;7667;51.232;17.110;2023-07-09T16:17:01;37.40;39.20
15133;DHT22;7667;51.232;17.110;2023-07-09T16:19:30;37.60;39.00
15133;DHT22;7667;51.232;17.110;2023-07-09T16:22:00;37.10;39.20
15133;DHT22;7667;51.232;17.110;2023-07-09T16:24:33;36.70;39.60
15133;DHT22;7667;51.232;17.110;2023-07-09T16:27:05;36.50;39.60
15133;DHT22;7667;51.232;17.110;2023-07-09T16:29:36;36.60;39.30
15133;DHT22;7667;51.232;17.110;2023-07-09T16:32:04;36.00;40.20
15133;DHT22;7667;51.232;17.110;2023-07-09T16:34:32;35.90;40.50
15133;DHT22;7667;51.232;17.110;2023-07-09T16:37:01;35.60;40.30
15133;DHT22;7667;51.232;17.110;2023-07-09T16:39:39;35.80;40.80
15133;DHT22;7667;51.232;17.110;2023-07-09T16:42:11;36.30;40.60
15133;DHT22;7667;51.232;17.110;2023-07-09T16:44:39;36.60;40.60
15133;DHT22;7667;51.232;17.110;2023-07-09T16:47:18;37.20;39.70
15133;DHT22;7667;51.232;17.110;2023-07-09T16:49:47;37.80;39.70